sensor_id;sensor_type;location;lat;lon;timestamp;pressure;altitude;pressure_sealevel;temperature;humidity
60642;BME280;46837;52.446;-1.930;2023-10-19T00:00:13;96831.02;;;13.30;98.26
60642;BME280;46837;52.446;-1.930;2023-10-19T00:01:10;96828.05;;;13.25;97.96
60642;BME280;46837;52.446;-1.930;2023-10-19T00:02:09;96828.49;;;13.24;98.16
60642;BME280;46837;52.446;-1.930;2023-10-19T00:03:09;96831.03;;;13.24;98.28
60642;BME280;46837;52.446;-1.930;2023-10-19T00:04:10;96831.04;;;13.23;98.37
60642;BME280;46837;52.446;-1.930;2023-10-19T00:05:12;96838.48;;;13.20;98.18
60642;BME280;46837;52.446;-1.930;2023-10-19T00:06:09;96831.95;;;13.18;98.39
60642;BME280;46837;52.446;-1.930;2023-10-19T00:07:10;96842.30;;;13.14;98.29
60642;BME280;46837;52.446;-1.930;2023-10-19T00:08:13;96845.21;;;13.12;98.62
60642;BME280;46837;52.446;-1.930;2023-10-19T00:09:13;96844.12;;;13.13;98.72
60642;BME280;46837;52.446;-1.930;2023-10-19T00:10:09;96846.77;;;13.14;98.76
60642;BME280;46837;52.446;-1.930;2023-10-19T00:11:11;96843.30;;;13.13;98.71
60642;BME280;46837;52.446;-1.930;2023-10-19T00:12:12;96843.18;;;13.15;98.72
60642;BME280;46837;52.446;-1.930;2023-10-19T00:13:10;96840.33;;;13.14;98.64
60642;BME280;46837;52.446;-1.930;2023-10-19T00:14:10;96849.07;;;13.08;98.56
60642;BME280;46837;52.446;-1.930;2023-10-19T00:15:09;96848.39;;;13.08;98.90
60642;BME280;46837;52.446;-1.930;2023-10-19T00:16:13;96849.00;;;13.07;98.82
60642;BME280;46837;52.446;-1.930;2023-10-19T00:17:13;96848.53;;;13.10;99.17
60642;BME280;46837;52.446;-1.930;2023-10-19T00:18:13;96847.47;;;13.07;98.80
60642;BME280;46837;52.446;-1.930;2023-10-19T00:19:09;96853.68;;;13.06;98.85
60642;BME280;46837;52.446;-1.930;2023-10-19T00:20:13;96851.99;;;13.03;98.83
60642;BME280;46837;52.446;-1.930;2023-10-19T00:21:13;96850.17;;;13.05;99.08
60642;BME280;46837;52.446;-1.930;2023-10-19T00:22:11;96849.28;;;13.07;99.06
60642;BME280;46837;52.446;-1.930;2023-10-19T00:23:09;96853.48;;;13.05;98.80
60642;BME280;46837;52.446;-1.930;2023-10-19T00:24:09;96856.45;;;13.08;98.99
60642;BME280;46837;52.446;-1.930;2023-10-19T00:25:09;96854.51;;;13.02;98.63
60642;BME280;46837;52.446;-1.930;2023-10-19T00:26:11;96855.22;;;13.05;99.01
60642;BME280;46837;52.446;-1.930;2023-10-19T00:27:15;96854.32;;;13.01;98.83
60642;BME280;46837;52.446;-1.930;2023-10-19T00:28:09;96857.46;;;13.03;99.10
60642;BME280;46837;52.446;-1.930;2023-10-19T00:29:13;96855.74;;;13.03;98.99
60642;BME280;46837;52.446;-1.930;2023-10-19T00:30:11;96856.21;;;13.02;98.90
60642;BME280;46837;52.446;-1.930;2023-10-19T00:31:11;96861.47;;;13.02;98.80
60642;BME280;46837;52.446;-1.930;2023-10-19T00:32:09;96859.64;;;13.05;98.92
60642;BME280;46837;52.446;-1.930;2023-10-19T00:33:13;96861.14;;;13.05;98.86
60642;BME280;46837;52.446;-1.930;2023-10-19T00:34:09;96862.23;;;13.06;98.70
60642;BME280;46837;52.446;-1.930;2023-10-19T00:35:13;96864.65;;;13.03;98.61
60642;BME280;46837;52.446;-1.930;2023-10-19T00:36:11;96866.45;;;13.05;98.67
60642;BME280;46837;52.446;-1.930;2023-10-19T00:37:10;96866.27;;;13.03;98.58
60642;BME280;46837;52.446;-1.930;2023-10-19T00:38:13;96862.72;;;13.03;98.65
60642;BME280;46837;52.446;-1.930;2023-10-19T00:39:13;96859.02;;;13.04;98.71
60642;BME280;46837;52.446;-1.930;2023-10-19T00:40:13;96861.44;;;12.99;98.55
60642;BME280;46837;52.446;-1.930;2023-10-19T00:41:13;96866.72;;;13.04;98.97
60642;BME280;46837;52.446;-1.930;2023-10-19T00:42:09;96864.95;;;13.03;98.70
60642;BME280;46837;52.446;-1.930;2023-10-19T00:43:13;96864.41;;;13.05;98.74
60642;BME280;46837;52.446;-1.930;2023-10-19T00:44:13;96854.66;;;13.06;98.60
60642;BME280;46837;52.446;-1.930;2023-10-19T00:45:09;96858.21;;;13.00;98.32
60642;BME280;46837;52.446;-1.930;2023-10-19T00:46:17;96850.27;;;12.95;98.68
60642;BME280;46837;52.446;-1.930;2023-10-19T00:47:13;96862.95;;;12.93;98.81
60642;BME280;46837;52.446;-1.930;2023-10-19T00:48:11;96860.14;;;12.95;99.04
60642;BME280;46837;52.446;-1.930;2023-10-19T00:49:12;96867.03;;;12.93;98.92
60642;BME280;46837;52.446;-1.930;2023-10-19T00:50:09;96871.27;;;12.96;99.20
60642;BME280;46837;52.446;-1.930;2023-10-19T00:51:13;96873.91;;;12.99;99.01
60642;BME280;46837;52.446;-1.930;2023-10-19T00:52:13;96874.27;;;12.98;98.79
60642;BME280;46837;52.446;-1.930;2023-10-19T00:53:11;96874.88;;;13.00;98.86
60642;BME280;46837;52.446;-1.930;2023-10-19T00:54:12;96870.64;;;12.97;98.72
60642;BME280;46837;52.446;-1.930;2023-10-19T00:55:09;96873.45;;;12.95;98.91
60642;BME280;46837;52.446;-1.930;2023-10-19T00:56:09;96872.76;;;12.99;99.15
60642;BME280;46837;52.446;-1.930;2023-10-19T00:57:13;96872.85;;;12.96;98.82
60642;BME280;46837;52.446;-1.930;2023-10-19T00:58:12;96872.77;;;12.94;98.85
60642;BME280;46837;52.446;-1.930;2023-10-19T00:59:13;96870.94;;;12.96;99.13
60642;BME280;46837;52.446;-1.930;2023-10-19T01:00:13;96872.04;;;12.98;99.09
60642;BME280;46837;52.446;-1.930;2023-10-19T01:01:11;96865.39;;;12.98;98.92
60642;BME280;46837;52.446;-1.930;2023-10-19T01:02:13;96871.46;;;12.97;98.76
60642;BME280;46837;52.446;-1.930;2023-10-19T01:03:10;96875.18;;;12.97;98.89
60642;BME280;46837;52.446;-1.930;2023-10-19T01:04:09;96876.49;;;12.94;98.86
60642;BME280;46837;52.446;-1.930;2023-10-19T01:05:09;96877.36;;;12.99;99.24
60642;BME280;46837;52.446;-1.930;2023-10-19T01:06:13;96878.46;;;12.97;98.97
60642;BME280;46837;52.446;-1.930;2023-10-19T01:07:12;96877.80;;;13.01;99.09
60642;BME280;46837;52.446;-1.930;2023-10-19T01:08:13;96878.45;;;13.02;98.90
60642;BME280;46837;52.446;-1.930;2023-10-19T01:09:09;96879.73;;;13.01;98.68
60642;BME280;46837;52.446;-1.930;2023-10-19T01:10:13;96872.99;;;13.01;98.69
60642;BME280;46837;52.446;-1.930;2023-10-19T01:11:09;96872.66;;;13.01;98.75
60642;BME280;46837;52.446;-1.930;2023-10-19T01:12:13;96875.46;;;13.01;98.67
60642;BME280;46837;52.446;-1.930;2023-10-19T01:13:09;96875.88;;;13.02;98.65
60642;BME280;46837;52.446;-1.930;2023-10-19T01:16:12;96879.12;;;13.03;98.54
60642;BME280;46837;52.446;-1.930;2023-10-19T01:17:09;96878.92;;;13.04;98.64
60642;BME280;46837;52.446;-1.930;2023-10-19T01:18:10;96881.84;;;13.05;98.57
60642;BME280;46837;52.446;-1.930;2023-10-19T01:19:09;96888.04;;;13.06;98.57
60642;BME280;46837;52.446;-1.930;2023-10-19T01:20:18;96884.42;;;13.06;98.40
60642;BME280;46837;52.446;-1.930;2023-10-19T01:21:10;96889.52;;;13.06;98.41
60642;BME280;46837;52.446;-1.930;2023-10-19T01:22:09;96892.32;;;13.06;98.33
60642;BME280;46837;52.446;-1.930;2023-10-19T01:23:15;96888.71;;;13.04;98.19
60642;BME280;46837;52.446;-1.930;2023-10-19T01:24:09;96889.09;;;13.04;98.36
60642;BME280;46837;52.446;-1.930;2023-10-19T01:25:13;96892.54;;;13.06;98.56
60642;BME280;46837;52.446;-1.930;2023-10-19T01:26:11;96897.44;;;13.07;98.40
60642;BME280;46837;52.446;-1.930;2023-10-19T01:27:11;96895.08;;;13.09;98.41
60642;BME280;46837;52.446;-1.930;2023-10-19T01:28:10;96891.26;;;13.09;98.24
60642;BME280;46837;52.446;-1.930;2023-10-19T01:29:13;96886.36;;;13.09;98.32
60642;BME280;46837;52.446;-1.930;2023-10-19T01:30:09;96888.67;;;13.09;98.25
60642;BME280;46837;52.446;-1.930;2023-10-19T01:31:12;96887.68;;;13.06;98.12
60642;BME280;46837;52.446;-1.930;2023-10-19T01:32:13;96892.06;;;13.05;98.38
60642;BME280;46837;52.446;-1.930;2023-10-19T01:33:13;96893.09;;;13.07;98.47
60642;BME280;46837;52.446;-1.930;2023-10-19T01:34:09;96894.46;;;13.08;98.38
60642;BME280;46837;52.446;-1.930;2023-10-19T01:35:09;96896.32;;;13.10;98.41
60642;BME280;46837;52.446;-1.930;2023-10-19T01:36:13;96897.27;;;13.11;98.30
60642;BME280;46837;52.446;-1.930;2023-10-19T01:37:09;96890.50;;;13.13;98.36
60642;BME280;46837;52.446;-1.930;2023-10-19T01:38:09;96890.76;;;13.10;98.13
60642;BME280;46837;52.446;-1.930;2023-10-19T01:39:12;96893.11;;;13.09;98.11
60642;BME280;46837;52.446;-1.930;2023-10-19T01:40:09;96890.45;;;13.08;98.32
60642;BME280;46837;52.446;-1.930;2023-10-19T01:41:15;96889.53;;;13.08;98.40
60642;BME280;46837;52.446;-1.930;2023-10-19T01:42:09;96891.93;;;13.08;98.45
60642;BME280;46837;52.446;-1.930;2023-10-19T01:43:09;96886.77;;;13.07;98.50
60642;BME280;46837;52.446;-1.930;2023-10-19T01:44:09;96894.09;;;13.06;98.61
60642;BME280;46837;52.446;-1.930;2023-10-19T01:45:09;96888.35;;;13.05;98.80
60642;BME280;46837;52.446;-1.930;2023-10-19T01:46:10;96887.31;;;13.07;98.90
60642;BME280;46837;52.446;-1.930;2023-10-19T01:47:09;96884.28;;;13.04;98.83
60642;BME280;46837;52.446;-1.930;2023-10-19T01:48:09;96884.32;;;13.06;99.15
60642;BME280;46837;52.446;-1.930;2023-10-19T01:49:09;96882.52;;;13.05;99.06
60642;BME280;46837;52.446;-1.930;2023-10-19T01:50:09;96885.50;;;13.07;99.23
60642;BME280;46837;52.446;-1.930;2023-10-19T01:51:09;96876.57;;;13.05;99.20
60642;BME280;46837;52.446;-1.930;2023-10-19T01:52:09;96881.96;;;13.06;99.35
60642;BME280;46837;52.446;-1.930;2023-10-19T01:53:13;96877.79;;;13.05;99.49
60642;BME280;46837;52.446;-1.930;2023-10-19T01:54:09;96874.70;;;13.05;99.68
60642;BME280;46837;52.446;-1.930;2023-10-19T01:55:10;96880.75;;;13.08;99.67
60642;BME280;46837;52.446;-1.930;2023-10-19T01:56:09;96877.16;;;13.09;99.55
60642;BME280;46837;52.446;-1.930;2023-10-19T01:57:10;96875.67;;;13.10;99.53
60642;BME280;46837;52.446;-1.930;2023-10-19T01:58:09;96874.74;;;13.11;99.56
60642;BME280;46837;52.446;-1.930;2023-10-19T01:59:09;96873.50;;;13.12;99.66
60642;BME280;46837;52.446;-1.930;2023-10-19T02:00:13;96869.74;;;13.13;99.72
60642;BME280;46837;52.446;-1.930;2023-10-19T02:01:15;96869.43;;;13.11;99.69
60642;BME280;46837;52.446;-1.930;2023-10-19T02:02:11;96869.93;;;13.11;99.90
60642;BME280;46837;52.446;-1.930;2023-10-19T02:03:10;96878.00;;;13.17;100.00
60642;BME280;46837;52.446;-1.930;2023-10-19T02:04:09;96877.08;;;13.16;99.75
60642;BME280;46837;52.446;-1.930;2023-10-19T02:05:11;96877.36;;;13.17;99.83
60642;BME280;46837;52.446;-1.930;2023-10-19T02:06:13;96873.68;;;13.17;99.79
60642;BME280;46837;52.446;-1.930;2023-10-19T02:07:13;96882.07;;;13.17;99.84
60642;BME280;46837;52.446;-1.930;2023-10-19T02:08:10;96876.90;;;13.18;99.89
60642;BME280;46837;52.446;-1.930;2023-10-19T02:09:13;96882.78;;;13.18;99.95
60642;BME280;46837;52.446;-1.930;2023-10-19T02:10:10;96876.29;;;13.22;100.00
60642;BME280;46837;52.446;-1.930;2023-10-19T02:11:12;96880.43;;;13.19;99.77
60642;BME280;46837;52.446;-1.930;2023-10-19T02:12:09;96881.53;;;13.24;100.00
60642;BME280;46837;52.446;-1.930;2023-10-19T02:13:09;96888.81;;;13.26;99.81
60642;BME280;46837;52.446;-1.930;2023-10-19T02:14:13;96870.14;;;13.19;99.58
60642;BME280;46837;52.446;-1.930;2023-10-19T02:15:09;96881.55;;;13.22;99.72
60642;BME280;46837;52.446;-1.930;2023-10-19T02:16:09;96877.76;;;13.26;99.81
60642;BME280;46837;52.446;-1.930;2023-10-19T02:17:09;96882.30;;;13.29;99.56
60642;BME280;46837;52.446;-1.930;2023-10-19T02:18:09;96881.90;;;13.26;99.22
60642;BME280;46837;52.446;-1.930;2023-10-19T02:19:09;96885.66;;;13.28;99.35
60642;BME280;46837;52.446;-1.930;2023-10-19T02:20:13;96881.52;;;13.25;99.09
60642;BME280;46837;52.446;-1.930;2023-10-19T02:21:09;96885.22;;;13.29;99.29
60642;BME280;46837;52.446;-1.930;2023-10-19T02:22:11;96886.58;;;13.31;99.10
60642;BME280;46837;52.446;-1.930;2023-10-19T02:23:09;96886.39;;;13.31;98.80
60642;BME280;46837;52.446;-1.930;2023-10-19T02:24:09;96881.88;;;13.28;98.68
60642;BME280;46837;52.446;-1.930;2023-10-19T02:25:09;96885.82;;;13.22;98.37
60642;BME280;46837;52.446;-1.930;2023-10-19T02:26:11;96892.66;;;13.23;98.73
60642;BME280;46837;52.446;-1.930;2023-10-19T02:27:09;96891.95;;;13.19;98.46
60642;BME280;46837;52.446;-1.930;2023-10-19T02:28:12;96891.34;;;13.14;98.45
60642;BME280;46837;52.446;-1.930;2023-10-19T02:29:10;96888.13;;;13.16;98.73
60642;BME280;46837;52.446;-1.930;2023-10-19T02:30:09;96884.65;;;13.16;98.66
60642;BME280;46837;52.446;-1.930;2023-10-19T02:31:13;96877.46;;;13.17;98.72
60642;BME280;46837;52.446;-1.930;2023-10-19T02:32:09;96873.05;;;13.18;98.60
60642;BME280;46837;52.446;-1.930;2023-10-19T02:33:09;96875.75;;;13.14;98.29
60642;BME280;46837;52.446;-1.930;2023-10-19T02:34:09;96880.69;;;13.14;98.46
60642;BME280;46837;52.446;-1.930;2023-10-19T02:35:09;96882.20;;;13.14;98.40
60642;BME280;46837;52.446;-1.930;2023-10-19T02:36:13;96876.21;;;13.11;98.29
60642;BME280;46837;52.446;-1.930;2023-10-19T02:37:09;96877.05;;;13.12;98.50
60642;BME280;46837;52.446;-1.930;2023-10-19T02:38:09;96877.18;;;13.10;98.23
60642;BME280;46837;52.446;-1.930;2023-10-19T02:39:11;96876.96;;;13.08;98.28
60642;BME280;46837;52.446;-1.930;2023-10-19T02:40:13;96876.60;;;13.05;98.23
60642;BME280;46837;52.446;-1.930;2023-10-19T02:41:09;96870.16;;;13.07;98.45
60642;BME280;46837;52.446;-1.930;2023-10-19T02:42:09;96869.61;;;13.04;98.08
60642;BME280;46837;52.446;-1.930;2023-10-19T02:43:09;96866.44;;;13.02;98.10
60642;BME280;46837;52.446;-1.930;2023-10-19T02:44:13;96871.30;;;12.97;97.99
60642;BME280;46837;52.446;-1.930;2023-10-19T02:45:09;96877.64;;;12.97;98.18
60642;BME280;46837;52.446;-1.930;2023-10-19T02:46:09;96883.29;;;12.98;98.24
60642;BME280;46837;52.446;-1.930;2023-10-19T02:47:11;96880.82;;;12.98;98.05
60642;BME280;46837;52.446;-1.930;2023-10-19T02:48:09;96881.27;;;12.96;97.82
60642;BME280;46837;52.446;-1.930;2023-10-19T02:49:13;96883.62;;;12.94;97.77
60642;BME280;46837;52.446;-1.930;2023-10-19T02:50:13;96887.91;;;12.93;97.82
60642;BME280;46837;52.446;-1.930;2023-10-19T02:51:13;96881.03;;;12.91;97.77
60642;BME280;46837;52.446;-1.930;2023-10-19T02:52:09;96883.08;;;12.89;97.73
60642;BME280;46837;52.446;-1.930;2023-10-19T02:53:09;96886.68;;;12.88;97.65
60642;BME280;46837;52.446;-1.930;2023-10-19T02:54:09;96886.46;;;12.89;97.77
60642;BME280;46837;52.446;-1.930;2023-10-19T02:55:09;96888.82;;;12.88;97.52
60642;BME280;46837;52.446;-1.930;2023-10-19T02:56:12;96881.06;;;12.87;97.46
60642;BME280;46837;52.446;-1.930;2023-10-19T02:57:12;96886.63;;;12.86;97.44
60642;BME280;46837;52.446;-1.930;2023-10-19T02:58:09;96889.24;;;12.84;97.36
60642;BME280;46837;52.446;-1.930;2023-10-19T02:59:09;96885.24;;;12.83;97.38
60642;BME280;46837;52.446;-1.930;2023-10-19T03:00:13;96882.16;;;12.83;97.54
60642;BME280;46837;52.446;-1.930;2023-10-19T03:01:13;96883.59;;;12.81;97.56
60642;BME280;46837;52.446;-1.930;2023-10-19T03:02:13;96879.91;;;12.77;97.62
60642;BME280;46837;52.446;-1.930;2023-10-19T03:03:09;96879.45;;;12.74;97.79
60642;BME280;46837;52.446;-1.930;2023-10-19T03:04:09;96875.39;;;12.76;98.15
60642;BME280;46837;52.446;-1.930;2023-10-19T03:05:13;96872.93;;;12.78;98.15
60642;BME280;46837;52.446;-1.930;2023-10-19T03:06:09;96876.05;;;12.78;97.96
60642;BME280;46837;52.446;-1.930;2023-10-19T03:07:09;96874.21;;;12.78;97.96
60642;BME280;46837;52.446;-1.930;2023-10-19T03:08:09;96878.38;;;12.79;97.99
60642;BME280;46837;52.446;-1.930;2023-10-19T03:09:13;96876.62;;;12.77;98.01
60642;BME280;46837;52.446;-1.930;2023-10-19T03:10:09;96875.41;;;12.76;98.11
60642;BME280;46837;52.446;-1.930;2023-10-19T03:11:09;96877.51;;;12.81;98.36
60642;BME280;46837;52.446;-1.930;2023-10-19T03:12:15;96873.42;;;12.82;98.17
60642;BME280;46837;52.446;-1.930;2023-10-19T03:13:09;96872.08;;;12.81;98.14
60642;BME280;46837;52.446;-1.930;2023-10-19T03:14:09;96876.54;;;12.82;98.24
60642;BME280;46837;52.446;-1.930;2023-10-19T03:15:09;96878.81;;;12.85;98.35
60642;BME280;46837;52.446;-1.930;2023-10-19T03:16:10;96878.50;;;12.87;98.20
60642;BME280;46837;52.446;-1.930;2023-10-19T03:17:11;96877.10;;;12.86;98.04
60642;BME280;46837;52.446;-1.930;2023-10-19T03:18:09;96878.14;;;12.83;98.33
60642;BME280;46837;52.446;-1.930;2023-10-19T03:19:10;96876.82;;;12.87;98.55
60642;BME280;46837;52.446;-1.930;2023-10-19T03:20:09;96879.15;;;12.91;98.50
60642;BME280;46837;52.446;-1.930;2023-10-19T03:21:09;96877.33;;;12.92;98.27
60642;BME280;46837;52.446;-1.930;2023-10-19T03:22:09;96881.29;;;12.94;98.34
60642;BME280;46837;52.446;-1.930;2023-10-19T03:23:09;96876.18;;;12.92;98.17
60642;BME280;46837;52.446;-1.930;2023-10-19T03:24:12;96881.31;;;12.88;98.51
60642;BME280;46837;52.446;-1.930;2023-10-19T03:25:13;96888.64;;;12.89;98.77
60642;BME280;46837;52.446;-1.930;2023-10-19T03:26:13;96883.59;;;12.94;98.90
60642;BME280;46837;52.446;-1.930;2023-10-19T03:27:13;96882.61;;;12.94;98.65
60642;BME280;46837;52.446;-1.930;2023-10-19T03:28:14;96884.41;;;12.97;98.66
60642;BME280;46837;52.446;-1.930;2023-10-19T03:29:12;96877.54;;;12.98;98.53
60642;BME280;46837;52.446;-1.930;2023-10-19T03:30:09;96874.75;;;12.94;98.48
60642;BME280;46837;52.446;-1.930;2023-10-19T03:31:09;96879.38;;;12.95;98.77
60642;BME280;46837;52.446;-1.930;2023-10-19T03:32:09;96871.48;;;12.95;98.87
60642;BME280;46837;52.446;-1.930;2023-10-19T03:33:09;96874.18;;;12.98;98.92
60642;BME280;46837;52.446;-1.930;2023-10-19T03:34:12;96876.11;;;13.02;98.87
60642;BME280;46837;52.446;-1.930;2023-10-19T03:35:09;96870.24;;;13.01;98.55
60642;BME280;46837;52.446;-1.930;2023-10-19T03:36:09;96869.89;;;12.99;98.61
60642;BME280;46837;52.446;-1.930;2023-10-19T03:37:15;96872.36;;;12.99;98.81
60642;BME280;46837;52.446;-1.930;2023-10-19T03:38:13;96868.54;;;13.00;98.87
60642;BME280;46837;52.446;-1.930;2023-10-19T03:39:13;96870.13;;;13.02;98.86
60642;BME280;46837;52.446;-1.930;2023-10-19T03:40:10;96870.73;;;12.98;98.65
60642;BME280;46837;52.446;-1.930;2023-10-19T03:41:10;96873.62;;;12.95;98.97
60642;BME280;46837;52.446;-1.930;2023-10-19T03:42:11;96872.62;;;12.97;99.23
60642;BME280;46837;52.446;-1.930;2023-10-19T03:43:13;96872.32;;;13.00;99.29
60642;BME280;46837;52.446;-1.930;2023-10-19T03:44:09;96873.82;;;12.98;98.99
60642;BME280;46837;52.446;-1.930;2023-10-19T03:45:13;96875.64;;;12.96;99.21
60642;BME280;46837;52.446;-1.930;2023-10-19T03:46:12;96871.82;;;12.97;99.48
60642;BME280;46837;52.446;-1.930;2023-10-19T03:47:09;96873.39;;;12.97;99.51
60642;BME280;46837;52.446;-1.930;2023-10-19T03:48:12;96866.39;;;13.01;99.59
60642;BME280;46837;52.446;-1.930;2023-10-19T03:49:13;96871.93;;;12.99;99.17
60642;BME280;46837;52.446;-1.930;2023-10-19T03:50:11;96870.96;;;13.00;99.38
60642;BME280;46837;52.446;-1.930;2023-10-19T03:51:09;96870.46;;;13.02;99.36
60642;BME280;46837;52.446;-1.930;2023-10-19T03:52:13;96868.17;;;13.03;99.42
60642;BME280;46837;52.446;-1.930;2023-10-19T03:53:09;96870.91;;;13.05;99.35
60642;BME280;46837;52.446;-1.930;2023-10-19T03:54:12;96870.87;;;13.07;99.28
60642;BME280;46837;52.446;-1.930;2023-10-19T03:55:13;96870.38;;;13.09;99.29
60642;BME280;46837;52.446;-1.930;2023-10-19T03:56:13;96873.42;;;13.11;99.12
60642;BME280;46837;52.446;-1.930;2023-10-19T03:57:15;96870.69;;;13.08;99.02
60642;BME280;46837;52.446;-1.930;2023-10-19T03:58:09;96870.01;;;13.10;99.30
60642;BME280;46837;52.446;-1.930;2023-10-19T03:59:09;96864.16;;;13.15;99.35
60642;BME280;46837;52.446;-1.930;2023-10-19T04:00:11;96868.20;;;13.16;98.95
60642;BME280;46837;52.446;-1.930;2023-10-19T04:01:09;96867.43;;;13.17;98.96
60642;BME280;46837;52.446;-1.930;2023-10-19T04:02:12;96869.93;;;13.17;98.89
60642;BME280;46837;52.446;-1.930;2023-10-19T04:03:09;96867.12;;;13.18;98.98
60642;BME280;46837;52.446;-1.930;2023-10-19T04:04:12;96863.25;;;13.20;99.10
60642;BME280;46837;52.446;-1.930;2023-10-19T04:05:09;96863.64;;;13.20;98.98
60642;BME280;46837;52.446;-1.930;2023-10-19T04:06:09;96862.00;;;13.20;99.12
60642;BME280;46837;52.446;-1.930;2023-10-19T04:07:13;96862.74;;;13.19;99.14
60642;BME280;46837;52.446;-1.930;2023-10-19T04:08:13;96865.80;;;13.22;99.46
60642;BME280;46837;52.446;-1.930;2023-10-19T04:09:09;96865.00;;;13.22;99.28
60642;BME280;46837;52.446;-1.930;2023-10-19T04:10:15;96861.85;;;13.19;99.38
60642;BME280;46837;52.446;-1.930;2023-10-19T04:11:11;96861.29;;;13.22;99.58
60642;BME280;46837;52.446;-1.930;2023-10-19T04:12:09;96859.14;;;13.25;99.65
60642;BME280;46837;52.446;-1.930;2023-10-19T04:13:14;96859.79;;;13.27;99.53
60642;BME280;46837;52.446;-1.930;2023-10-19T04:14:09;96858.29;;;13.29;99.38
60642;BME280;46837;52.446;-1.930;2023-10-19T04:15:13;96856.53;;;13.30;99.28
60642;BME280;46837;52.446;-1.930;2023-10-19T04:16:12;96858.70;;;13.27;99.44
60642;BME280;46837;52.446;-1.930;2023-10-19T04:17:09;96859.53;;;13.26;99.61
60642;BME280;46837;52.446;-1.930;2023-10-19T04:18:13;96860.07;;;13.28;99.70
60642;BME280;46837;52.446;-1.930;2023-10-19T04:19:09;96858.16;;;13.28;99.65
60642;BME280;46837;52.446;-1.930;2023-10-19T04:20:16;96855.52;;;13.32;99.89
60642;BME280;46837;52.446;-1.930;2023-10-19T04:21:09;96852.61;;;13.33;99.58
60642;BME280;46837;52.446;-1.930;2023-10-19T04:22:09;96854.09;;;13.30;99.56
60642;BME280;46837;52.446;-1.930;2023-10-19T04:23:13;96850.85;;;13.28;99.77
60642;BME280;46837;52.446;-1.930;2023-10-19T04:24:09;96848.85;;;13.25;100.00
60642;BME280;46837;52.446;-1.930;2023-10-19T04:25:09;96852.73;;;13.28;100.00
60642;BME280;46837;52.446;-1.930;2023-10-19T04:26:13;96850.67;;;13.29;100.00
60642;BME280;46837;52.446;-1.930;2023-10-19T04:27:09;96847.41;;;13.30;100.00
60642;BME280;46837;52.446;-1.930;2023-10-19T04:28:09;96843.21;;;13.35;100.00
60642;BME280;46837;52.446;-1.930;2023-10-19T04:29:13;96843.20;;;13.32;100.00
60642;BME280;46837;52.446;-1.930;2023-10-19T04:30:09;96842.37;;;13.36;100.00
60642;BME280;46837;52.446;-1.930;2023-10-19T04:31:09;96846.64;;;13.39;100.00
60642;BME280;46837;52.446;-1.930;2023-10-19T04:32:09;96842.50;;;13.38;100.00
60642;BME280;46837;52.446;-1.930;2023-10-19T04:33:12;96842.19;;;13.40;100.00
60642;BME280;46837;52.446;-1.930;2023-10-19T04:34:10;96841.54;;;13.44;100.00
60642;BME280;46837;52.446;-1.930;2023-10-19T04:35:11;96837.52;;;13.47;100.00
60642;BME280;46837;52.446;-1.930;2023-10-19T04:36:14;96840.71;;;13.45;99.69
60642;BME280;46837;52.446;-1.930;2023-10-19T04:37:09;96839.42;;;13.48;100.00
60642;BME280;46837;52.446;-1.930;2023-10-19T04:38:11;96837.55;;;13.50;99.99
60642;BME280;46837;52.446;-1.930;2023-10-19T04:39:09;96841.39;;;13.54;100.00
60642;BME280;46837;52.446;-1.930;2023-10-19T04:40:10;96838.54;;;13.54;99.76
60642;BME280;46837;52.446;-1.930;2023-10-19T04:41:10;96836.87;;;13.56;99.87
60642;BME280;46837;52.446;-1.930;2023-10-19T04:42:09;96835.58;;;13.59;99.93
60642;BME280;46837;52.446;-1.930;2023-10-19T04:43:09;96833.48;;;13.59;99.73
60642;BME280;46837;52.446;-1.930;2023-10-19T04:44:11;96838.01;;;13.60;99.97
60642;BME280;46837;52.446;-1.930;2023-10-19T04:45:09;96835.48;;;13.59;99.91
60642;BME280;46837;52.446;-1.930;2023-10-19T04:46:11;96838.66;;;13.60;100.00
60642;BME280;46837;52.446;-1.930;2023-10-19T04:47:09;96838.06;;;13.64;100.00
60642;BME280;46837;52.446;-1.930;2023-10-19T04:48:09;96838.34;;;13.67;100.00
60642;BME280;46837;52.446;-1.930;2023-10-19T04:49:09;96837.14;;;13.70;100.00
60642;BME280;46837;52.446;-1.930;2023-10-19T04:50:09;96838.89;;;13.71;99.64
60642;BME280;46837;52.446;-1.930;2023-10-19T04:51:09;96834.66;;;13.72;99.66
60642;BME280;46837;52.446;-1.930;2023-10-19T04:52:09;96835.45;;;13.69;99.51
60642;BME280;46837;52.446;-1.930;2023-10-19T04:53:09;96835.12;;;13.74;99.86
60642;BME280;46837;52.446;-1.930;2023-10-19T04:54:09;96835.52;;;13.76;99.67
60642;BME280;46837;52.446;-1.930;2023-10-19T04:55:09;96828.77;;;13.76;99.44
60642;BME280;46837;52.446;-1.930;2023-10-19T04:56:09;96827.61;;;13.76;99.38
60642;BME280;46837;52.446;-1.930;2023-10-19T04:57:09;96826.87;;;13.78;99.45
60642;BME280;46837;52.446;-1.930;2023-10-19T04:58:09;96830.04;;;13.79;99.38
60642;BME280;46837;52.446;-1.930;2023-10-19T04:59:09;96826.00;;;13.78;99.22
60642;BME280;46837;52.446;-1.930;2023-10-19T05:00:09;96826.85;;;13.75;99.12
60642;BME280;46837;52.446;-1.930;2023-10-19T05:01:09;96826.50;;;13.76;99.43
60642;BME280;46837;52.446;-1.930;2023-10-19T05:02:09;96833.36;;;13.73;99.47
60642;BME280;46837;52.446;-1.930;2023-10-19T05:03:09;96827.50;;;13.73;99.64
60642;BME280;46837;52.446;-1.930;2023-10-19T05:04:09;96828.48;;;13.76;99.77
60642;BME280;46837;52.446;-1.930;2023-10-19T05:05:09;96826.64;;;13.75;99.57
60642;BME280;46837;52.446;-1.930;2023-10-19T05:06:09;96825.48;;;13.76;99.73
60642;BME280;46837;52.446;-1.930;2023-10-19T05:07:12;96821.00;;;13.79;99.80
60642;BME280;46837;52.446;-1.930;2023-10-19T05:08:09;96820.84;;;13.80;99.65
60642;BME280;46837;52.446;-1.930;2023-10-19T05:09:09;96818.43;;;13.83;99.70
60642;BME280;46837;52.446;-1.930;2023-10-19T05:10:09;96815.94;;;13.82;99.34
60642;BME280;46837;52.446;-1.930;2023-10-19T05:11:09;96814.60;;;13.82;99.39
60642;BME280;46837;52.446;-1.930;2023-10-19T05:12:11;96817.58;;;13.85;99.56
60642;BME280;46837;52.446;-1.930;2023-10-19T05:13:09;96812.17;;;13.85;99.51
60642;BME280;46837;52.446;-1.930;2023-10-19T05:14:09;96810.38;;;13.87;99.41
60642;BME280;46837;52.446;-1.930;2023-10-19T05:15:09;96813.76;;;13.91;99.55